createdAt,value
2023-08-26T00:02:08.317Z,23.95
2023-08-26T00:04:36.533Z,23.93
2023-08-26T00:07:04.655Z,23.92
2023-08-26T00:09:32.658Z,23.90
2023-08-26T00:12:00.629Z,23.93
2023-08-26T00:14:30.039Z,23.87
2023-08-26T00:16:58.766Z,23.87
2023-08-26T00:19:26.993Z,23.90
2023-08-26T00:21:54.951Z,23.90
2023-08-26T00:24:23.032Z,23.72
2023-08-26T00:26:51.206Z,23.62
2023-08-26T00:29:19.223Z,23.51
2023-08-26T00:31:48.648Z,23.49
2023-08-26T00:34:16.725Z,23.52
2023-08-26T00:36:44.690Z,23.61
2023-08-26T00:39:12.663Z,23.61
2023-08-26T00:41:40.636Z,23.61
2023-08-26T00:44:08.627Z,23.53
2023-08-26T00:46:37.512Z,23.52
2023-08-26T00:49:07.970Z,23.49
2023-08-26T00:51:36.682Z,23.43
2023-08-26T00:54:06.103Z,23.27
2023-08-26T00:56:35.071Z,23.22
2023-08-26T00:59:03.187Z,22.96
2023-08-26T01:01:34.159Z,22.85
2023-08-26T01:04:02.202Z,22.92
2023-08-26T01:06:31.606Z,22.97
2023-08-26T01:08:59.777Z,23.03
2023-08-26T01:11:42.374Z,22.94
2023-08-26T01:14:16.929Z,22.83
2023-08-26T01:16:44.904Z,22.83
2023-08-26T01:19:23.640Z,22.86
2023-08-26T01:21:58.781Z,22.95
2023-08-26T01:24:28.824Z,23.06
2023-08-26T01:26:56.829Z,23.10
2023-08-26T01:29:24.991Z,23.11
2023-08-26T01:32:00.811Z,23.14
2023-08-26T01:34:33.054Z,23.15
2023-08-26T01:37:04.027Z,23.11
2023-08-26T01:39:33.876Z,22.98
2023-08-26T01:42:04.394Z,22.95
2023-08-26T01:44:33.649Z,23.06
2023-08-26T01:47:01.588Z,23.08
2023-08-26T01:49:29.575Z,23.08
2023-08-26T01:51:57.611Z,23.06
2023-08-26T01:54:25.711Z,23.04
2023-08-26T01:56:55.074Z,22.95
2023-08-26T01:59:23.169Z,23.01
2023-08-26T02:01:51.326Z,23.00
2023-08-26T02:04:19.490Z,23.06
2023-08-26T02:06:47.536Z,23.08
2023-08-26T02:09:15.470Z,23.08
2023-08-26T02:11:43.495Z,23.14
2023-08-26T02:14:12.966Z,23.15
2023-08-26T02:16:41.125Z,23.10
2023-08-26T02:19:09.320Z,23.08
2023-08-26T02:21:37.340Z,23.08
2023-08-26T02:24:05.678Z,23.08
2023-08-26T02:26:34.114Z,22.93
2023-08-26T02:29:02.083Z,23.00
2023-08-26T02:31:31.506Z,23.05
2023-08-26T02:33:59.527Z,22.99
2023-08-26T02:36:27.523Z,22.98
2023-08-26T02:38:56.968Z,22.92
2023-08-26T02:41:25.101Z,22.93
2023-08-26T02:43:53.072Z,22.90
2023-08-26T02:46:21.056Z,22.77
2023-08-26T02:48:51.762Z,22.82
2023-08-26T02:51:19.798Z,22.81
2023-08-26T02:53:47.751Z,22.78
2023-08-26T02:56:16.150Z,22.72
2023-08-26T02:58:44.130Z,22.70
2023-08-26T03:01:12.160Z,22.63
2023-08-26T03:03:40.252Z,22.61
2023-08-26T03:06:09.627Z,22.56
2023-08-26T03:08:37.728Z,22.55
2023-08-26T03:11:08.905Z,22.53
2023-08-26T03:13:36.992Z,22.50
2023-08-26T03:16:09.119Z,22.50
2023-08-26T03:18:37.210Z,22.47
2023-08-26T03:21:06.282Z,22.49
2023-08-26T03:23:36.150Z,22.43
2023-08-26T03:26:04.730Z,22.32
2023-08-26T03:28:32.743Z,22.37
2023-08-26T03:31:06.286Z,22.34
2023-08-26T03:33:35.466Z,22.28
2023-08-26T03:36:05.394Z,22.22
2023-08-26T03:38:33.766Z,22.22
2023-08-26T03:41:04.092Z,22.21
2023-08-26T03:43:32.244Z,22.17
2023-08-26T03:46:00.737Z,22.15
2023-08-26T03:48:28.822Z,22.11
2023-08-26T03:50:59.131Z,22.08
2023-08-26T03:53:28.495Z,22.06
2023-08-26T03:55:56.565Z,22.09
2023-08-26T03:58:27.979Z,22.10
2023-08-26T04:01:01.940Z,22.07
2023-08-26T04:03:30.075Z,22.09
2023-08-26T04:06:02.187Z,22.11
2023-08-26T04:08:31.426Z,22.21
2023-08-26T04:10:59.901Z,22.22
2023-08-26T04:13:31.528Z,22.30
2023-08-26T04:15:59.806Z,22.32
2023-08-26T04:18:27.929Z,22.39
2023-08-26T04:20:55.979Z,22.48
2023-08-26T04:23:24.082Z,22.53
2023-08-26T04:25:53.347Z,22.59
2023-08-26T04:28:21.327Z,22.67
2023-08-26T04:30:51.414Z,22.81
2023-08-26T04:33:20.361Z,22.85
2023-08-26T04:35:48.352Z,22.99
2023-08-26T04:38:16.492Z,23.13
2023-08-26T04:40:44.868Z,23.23
2023-08-26T04:43:13.143Z,23.38
2023-08-26T04:45:41.819Z,23.51
2023-08-26T04:48:11.321Z,23.62
2023-08-26T04:50:41.558Z,23.73
2023-08-26T04:53:09.556Z,23.86
2023-08-26T04:55:38.107Z,23.90
2023-08-26T04:58:08.975Z,24.11
2023-08-26T05:00:38.057Z,24.19
2023-08-26T05:03:06.422Z,24.50
2023-08-26T05:05:35.842Z,24.69
2023-08-26T05:08:04.001Z,24.89
2023-08-26T05:10:32.021Z,25.09
2023-08-26T05:13:00.019Z,25.24
2023-08-26T05:15:29.967Z,25.42
2023-08-26T05:17:58.391Z,25.60
2023-08-26T05:20:26.738Z,25.86
2023-08-26T05:22:56.202Z,25.98
2023-08-26T05:25:24.304Z,26.14
2023-08-26T05:27:52.310Z,26.38
2023-08-26T05:30:20.602Z,26.56
2023-08-26T05:32:48.702Z,26.77
2023-08-26T05:35:16.915Z,26.96
2023-08-26T05:37:46.501Z,27.20
2023-08-26T05:40:17.645Z,27.31
2023-08-26T05:42:45.724Z,27.54
2023-08-26T05:45:13.748Z,27.75
2023-08-26T05:47:41.735Z,28.00
2023-08-26T05:50:10.490Z,28.14
2023-08-26T05:52:38.446Z,28.38
2023-08-26T05:55:07.129Z,28.52
2023-08-26T05:57:36.511Z,28.65
2023-08-26T06:00:05.942Z,28.81
2023-08-26T06:02:34.000Z,29.00
2023-08-26T06:05:02.031Z,29.09
2023-08-26T06:07:29.994Z,29.14
2023-08-26T06:09:57.930Z,29.21
2023-08-26T06:12:25.895Z,29.33
2023-08-26T06:14:55.394Z,29.39
2023-08-26T06:17:23.363Z,29.60
2023-08-26T06:19:51.399Z,29.53
2023-08-26T06:22:19.471Z,29.23
2023-08-26T06:24:47.397Z,29.48
2023-08-26T06:27:15.348Z,29.73
2023-08-26T06:29:45.932Z,29.32
2023-08-26T06:32:15.308Z,29.62
2023-08-26T06:34:43.727Z,29.96
2023-08-26T06:37:11.695Z,30.02
2023-08-26T06:39:39.754Z,29.99
2023-08-26T06:42:08.198Z,29.81
2023-08-26T06:44:36.195Z,29.88
2023-08-26T06:47:04.419Z,29.75
2023-08-26T06:49:33.771Z,30.14
2023-08-26T06:52:01.850Z,30.39
2023-08-26T06:54:31.656Z,30.63
2023-08-26T06:57:00.836Z,30.75
2023-08-26T06:59:28.813Z,30.98
2023-08-26T07:01:56.801Z,30.95
2023-08-26T07:04:26.848Z,30.46
2023-08-26T07:06:56.168Z,30.62
2023-08-26T07:09:24.395Z,30.33
2023-08-26T07:11:52.445Z,30.52
2023-08-26T07:14:20.460Z,30.61
2023-08-26T07:16:48.510Z,30.86
2023-08-26T07:19:16.610Z,31.27
2023-08-26T07:21:44.710Z,31.44
2023-08-26T07:24:15.495Z,31.61
2023-08-26T07:26:43.698Z,31.86
2023-08-26T07:29:11.896Z,31.93
2023-08-26T07:31:40.040Z,31.96
2023-08-26T07:34:08.120Z,32.38
2023-08-26T07:36:36.492Z,32.33
2023-08-26T07:39:05.492Z,32.19
2023-08-26T07:41:34.848Z,32.57
2023-08-26T07:44:04.291Z,32.70
2023-08-26T07:49:03.153Z,33.11
2023-08-26T07:51:31.181Z,33.05
2023-08-26T07:53:59.200Z,32.90
2023-08-26T07:56:27.392Z,33.29
2023-08-26T07:58:56.728Z,33.49
2023-08-26T08:01:24.732Z,33.76
2023-08-26T08:03:52.801Z,33.56
2023-08-26T08:06:21.004Z,33.79
2023-08-26T08:08:49.050Z,33.65
2023-08-26T08:11:17.043Z,33.61
2023-08-26T08:13:45.310Z,33.75
2023-08-26T08:16:15.607Z,33.94
2023-08-26T08:18:43.622Z,34.14
2023-08-26T08:21:11.667Z,34.32
2023-08-26T08:23:42.303Z,34.20
2023-08-26T08:26:10.518Z,34.00
2023-08-26T08:28:38.542Z,34.26
2023-08-26T08:31:06.867Z,34.49
2023-08-26T08:33:36.511Z,34.88
2023-08-26T08:36:04.912Z,34.96
2023-08-26T08:38:32.983Z,34.92
2023-08-26T08:41:01.049Z,34.98
2023-08-26T08:43:31.956Z,35.17
2023-08-26T08:46:00.103Z,35.19
2023-08-26T08:48:29.437Z,35.34
2023-08-26T08:51:01.132Z,35.57
2023-08-26T08:53:32.573Z,35.18
2023-08-26T08:56:02.762Z,35.15
2023-08-26T08:58:31.981Z,35.35
2023-08-26T09:01:01.452Z,35.74
2023-08-26T09:03:29.637Z,35.36
2023-08-26T09:05:59.316Z,35.17
2023-08-26T09:08:28.627Z,35.42
2023-08-26T09:10:57.248Z,35.43
2023-08-26T09:13:25.399Z,35.67
2023-08-26T09:15:54.311Z,35.69
2023-08-26T09:18:22.444Z,35.63
2023-08-26T09:20:50.572Z,35.34
2023-08-26T09:23:20.061Z,35.56
2023-08-26T09:25:56.236Z,36.01
2023-08-26T09:28:25.613Z,36.26
2023-08-26T09:31:06.781Z,36.21
2023-08-26T09:33:35.208Z,36.17
2023-08-26T09:38:45.588Z,36.60
2023-08-26T09:41:14.043Z,36.88
2023-08-26T09:43:44.364Z,37.00
2023-08-26T09:46:19.674Z,36.92
2023-08-26T09:48:49.303Z,36.53
2023-08-26T09:51:27.700Z,36.04
2023-08-26T09:53:57.356Z,35.76
2023-08-26T09:56:26.700Z,35.78
2023-08-26T09:58:55.681Z,35.31
2023-08-26T10:01:25.205Z,34.88
2023-08-26T10:03:59.714Z,34.83
2023-08-26T10:06:31.873Z,34.91
2023-08-26T10:09:08.941Z,35.01
2023-08-26T10:11:40.756Z,35.42
2023-08-26T10:14:13.808Z,35.80
2023-08-26T10:16:45.365Z,35.82
2023-08-26T10:19:15.775Z,36.00
2023-08-26T10:21:45.320Z,35.98
2023-08-26T10:24:16.601Z,35.88
2023-08-26T10:26:45.581Z,35.92
2023-08-26T10:29:14.074Z,36.16
2023-08-26T10:31:44.547Z,36.24
2023-08-26T10:34:16.815Z,36.15
2023-08-26T10:36:49.156Z,35.92
2023-08-26T10:39:20.534Z,35.69
2023-08-26T10:42:15.544Z,35.44
2023-08-26T10:44:46.902Z,35.40
2023-08-26T10:47:35.087Z,35.56
2023-08-26T10:50:20.800Z,35.82
2023-08-26T10:52:53.481Z,36.10
2023-08-26T10:55:24.874Z,35.74
2023-08-26T10:58:13.379Z,35.47
2023-08-26T11:00:43.147Z,35.28
2023-08-26T11:03:12.255Z,35.20
2023-08-26T11:05:42.654Z,35.03
2023-08-26T11:08:11.105Z,35.21
2023-08-26T11:10:41.937Z,35.46
2023-08-26T11:13:12.027Z,35.89
2023-08-26T11:15:42.300Z,36.06
2023-08-26T11:18:13.070Z,35.82
2023-08-26T11:20:41.450Z,35.97
2023-08-26T11:23:09.831Z,36.03
2023-08-26T11:25:38.988Z,36.30
2023-08-26T11:28:09.930Z,36.24
2023-08-26T11:30:38.731Z,36.19
2023-08-26T11:33:11.346Z,36.24
2023-08-26T11:35:43.569Z,36.36
2023-08-26T11:38:14.071Z,36.40
2023-08-26T11:40:42.591Z,36.42
2023-08-26T11:43:13.354Z,36.43
2023-08-26T11:45:43.813Z,36.37
2023-08-26T11:48:13.243Z,36.39
2023-08-26T11:50:43.073Z,36.36
2023-08-26T11:53:11.497Z,36.58
2023-08-26T11:55:40.851Z,36.72
2023-08-26T11:58:10.039Z,36.78
2023-08-26T12:00:39.701Z,36.77
2023-08-26T12:03:10.885Z,36.76
2023-08-26T12:05:47.284Z,36.79
2023-08-26T12:08:16.963Z,36.79
2023-08-26T12:10:49.152Z,36.90
2023-08-26T12:13:17.483Z,36.68
2023-08-26T12:15:48.067Z,36.53
2023-08-26T12:18:16.884Z,36.63
2023-08-26T12:20:47.983Z,36.43
2023-08-26T12:23:20.050Z,36.30
2023-08-26T12:25:48.365Z,36.50
2023-08-26T12:28:19.444Z,36.23
2023-08-26T12:30:49.781Z,36.33
2023-08-26T12:33:26.335Z,36.42
2023-08-26T12:35:57.023Z,36.42
2023-08-26T12:38:26.033Z,36.45
2023-08-26T12:40:54.110Z,36.60
2023-08-26T12:43:22.796Z,36.68
2023-08-26T12:45:52.598Z,36.56
2023-08-26T12:50:52.030Z,36.40
2023-08-26T12:53:20.191Z,36.44
2023-08-26T12:55:48.409Z,36.35
2023-08-26T12:58:22.797Z,36.22
2023-08-26T13:00:52.911Z,36.24
2023-08-26T13:03:21.588Z,36.20
2023-08-26T13:05:53.218Z,36.25
2023-08-26T13:08:21.471Z,36.28
2023-08-26T13:10:49.936Z,36.14
2023-08-26T13:13:18.128Z,36.20
2023-08-26T13:15:46.489Z,36.21
2023-08-26T13:18:16.440Z,35.87
2023-08-26T13:20:44.612Z,35.99
2023-08-26T13:23:12.962Z,36.10
2023-08-26T13:25:41.433Z,35.86
2023-08-26T13:28:11.340Z,35.81
2023-08-26T13:30:39.858Z,35.84
2023-08-26T13:33:07.996Z,35.91
2023-08-26T13:35:37.716Z,35.95
2023-08-26T13:38:06.298Z,35.81
2023-08-26T13:40:34.622Z,35.85
2023-08-26T13:43:02.850Z,35.71
2023-08-26T13:45:31.027Z,35.73
2023-08-26T13:48:00.096Z,35.64
2023-08-26T13:50:30.631Z,35.73
2023-08-26T13:53:00.511Z,35.62
2023-08-26T13:55:28.615Z,35.51
2023-08-26T13:57:57.733Z,35.50
2023-08-26T14:00:25.872Z,35.51
2023-08-26T14:02:54.105Z,35.56
2023-08-26T14:05:24.671Z,35.72
2023-08-26T14:07:55.902Z,35.56
2023-08-26T14:10:25.725Z,35.53
2023-08-26T14:12:53.752Z,35.51
2023-08-26T14:15:21.745Z,35.54
2023-08-26T14:17:49.922Z,35.51
2023-08-26T14:20:18.247Z,35.40
2023-08-26T14:22:46.386Z,35.35
2023-08-26T14:25:14.727Z,34.88
2023-08-26T14:27:44.438Z,35.02
2023-08-26T14:30:13.297Z,35.02
2023-08-26T14:32:41.568Z,34.96
2023-08-26T14:35:10.509Z,35.04
2023-08-26T14:37:38.842Z,35.01
2023-08-26T14:40:07.986Z,34.85
2023-08-26T14:42:36.168Z,34.86
2023-08-26T14:45:06.466Z,34.90
2023-08-26T14:47:34.510Z,34.79
2023-08-26T14:50:02.633Z,34.84
2023-08-26T14:52:30.932Z,34.84
2023-08-26T14:54:58.953Z,34.77
2023-08-26T14:57:27.732Z,34.73
2023-08-26T14:59:56.003Z,34.81
2023-08-26T15:02:26.390Z,34.78
2023-08-26T15:04:56.457Z,34.70
2023-08-26T15:07:25.948Z,34.70
2023-08-26T15:09:54.137Z,34.51
2023-08-26T15:12:22.485Z,34.57
2023-08-26T15:14:50.677Z,34.45
2023-08-26T15:17:18.909Z,34.44
2023-08-26T15:19:48.434Z,34.41
2023-08-26T15:22:16.623Z,34.41
2023-08-26T15:24:45.169Z,34.38
2023-08-26T15:27:13.370Z,34.33
2023-08-26T15:29:41.540Z,34.24
2023-08-26T15:32:09.719Z,34.18
2023-08-26T15:34:37.889Z,34.03
2023-08-26T15:37:07.743Z,34.05
2023-08-26T15:39:36.910Z,34.12
2023-08-26T15:42:05.499Z,33.80
2023-08-26T15:44:33.608Z,33.79
2023-08-26T15:47:01.845Z,33.89
2023-08-26T15:49:29.905Z,33.72
2023-08-26T15:51:58.192Z,33.79
2023-08-26T15:54:28.048Z,33.64
2023-08-26T15:56:56.120Z,33.45
2023-08-26T15:59:24.240Z,33.14
2023-08-26T16:01:54.138Z,33.16
2023-08-26T16:04:22.397Z,33.13
2023-08-26T16:06:50.497Z,32.96
2023-08-26T16:09:18.687Z,32.74
2023-08-26T16:11:48.245Z,32.69
2023-08-26T16:14:16.512Z,32.50
2023-08-26T16:16:44.648Z,32.54
2023-08-26T16:19:12.859Z,32.47
2023-08-26T16:21:41.290Z,32.40
2023-08-26T16:24:09.441Z,32.42
2023-08-26T16:26:37.610Z,32.15
2023-08-26T16:29:07.660Z,32.08
2023-08-26T16:31:35.871Z,31.96
2023-08-26T16:34:04.084Z,31.71
2023-08-26T16:36:32.689Z,31.69
2023-08-26T16:39:00.920Z,31.77
2023-08-26T16:41:29.145Z,31.75
2023-08-26T16:43:57.275Z,31.82
2023-08-26T16:46:26.845Z,31.82
2023-08-26T16:48:55.383Z,31.74
2023-08-26T16:51:23.641Z,31.67
2023-08-26T16:53:51.747Z,31.54
2023-08-26T16:56:19.862Z,31.34
2023-08-26T16:58:48.028Z,31.42
2023-08-26T17:01:16.169Z,31.29
2023-08-26T17:03:46.475Z,31.11
2023-08-26T17:06:16.040Z,31.03
2023-08-26T17:08:44.230Z,31.00
2023-08-26T17:11:12.656Z,31.00
2023-08-26T17:13:41.550Z,30.95
2023-08-26T17:16:09.775Z,30.59
2023-08-26T17:18:37.872Z,30.30
2023-08-26T17:21:07.530Z,30.38
2023-08-26T17:23:35.675Z,30.38
2023-08-26T17:26:04.234Z,30.24
2023-08-26T17:28:32.729Z,30.18
2023-08-26T17:31:01.278Z,30.11
2023-08-26T17:33:29.904Z,30.04
2023-08-26T17:35:58.070Z,30.15
2023-08-26T17:38:28.062Z,30.18
2023-08-26T17:40:57.864Z,30.17
2023-08-26T17:43:25.987Z,30.05
2023-08-26T17:45:54.246Z,29.96
2023-08-26T17:48:22.240Z,30.10
2023-08-26T17:50:51.228Z,30.10
2023-08-26T17:53:19.366Z,30.17
2023-08-26T17:55:49.171Z,30.21
2023-08-26T17:58:17.310Z,30.27
2023-08-26T18:00:48.224Z,30.00
2023-08-26T18:03:16.961Z,30.16
2023-08-26T18:05:45.481Z,30.08
2023-08-26T18:08:16.663Z,30.05
2023-08-26T18:10:44.778Z,30.05
2023-08-26T18:13:14.242Z,30.15
2023-08-26T18:15:42.348Z,29.98
2023-08-26T18:18:10.772Z,30.20
2023-08-26T18:20:39.104Z,30.11
2023-08-26T18:23:07.395Z,30.02
2023-08-26T18:25:35.484Z,29.97
2023-08-26T18:28:03.582Z,29.87
2023-08-26T18:30:33.038Z,29.91
2023-08-26T18:33:01.369Z,29.75
2023-08-26T18:35:29.638Z,29.42
2023-08-26T18:37:57.876Z,29.49
2023-08-26T18:40:26.570Z,29.54
2023-08-26T18:42:55.868Z,29.59
2023-08-26T18:45:24.143Z,29.62
2023-08-26T18:47:53.832Z,29.66
2023-08-26T18:50:21.872Z,29.64
2023-08-26T18:52:50.028Z,29.58
2023-08-26T18:55:18.376Z,29.41
2023-08-26T18:57:46.687Z,29.16
2023-08-26T19:00:15.278Z,29.11
2023-08-26T19:02:44.162Z,28.88
2023-08-26T19:05:13.695Z,29.02
2023-08-26T19:07:42.049Z,28.99
2023-08-26T19:10:11.018Z,29.00
2023-08-26T19:12:39.460Z,28.85
2023-08-26T19:15:08.485Z,28.87
2023-08-26T19:17:36.623Z,28.87
2023-08-26T19:20:05.003Z,28.85
2023-08-26T19:22:34.529Z,28.69
2023-08-26T19:25:02.486Z,28.68
2023-08-26T19:27:30.568Z,28.77
2023-08-26T19:29:58.579Z,28.69
2023-08-26T19:32:26.781Z,28.62
2023-08-26T19:34:55.075Z,28.60
2023-08-26T19:37:23.199Z,28.47
2023-08-26T19:39:52.696Z,28.48
2023-08-26T19:42:20.793Z,28.50
2023-08-26T19:44:48.844Z,28.42
2023-08-26T19:47:16.851Z,28.45
2023-08-26T19:49:44.816Z,28.44
2023-08-26T19:52:12.816Z,28.35
2023-08-26T19:54:41.025Z,28.16
2023-08-26T19:57:11.122Z,28.19
2023-08-26T19:59:39.591Z,28.09
2023-08-26T20:02:08.238Z,28.09
2023-08-26T20:04:36.378Z,28.05
2023-08-26T20:07:04.816Z,27.86
2023-08-26T20:09:33.183Z,27.87
2023-08-26T20:12:01.364Z,27.85
2023-08-26T20:14:31.093Z,27.89
2023-08-26T20:16:59.087Z,27.92
2023-08-26T20:19:27.279Z,27.77
2023-08-26T20:21:58.580Z,27.79
2023-08-26T20:24:27.902Z,27.74
2023-08-26T20:26:56.265Z,27.61
2023-08-26T20:29:24.858Z,27.36
2023-08-26T20:31:54.817Z,27.50
2023-08-26T20:34:23.480Z,27.39
2023-08-26T20:36:52.028Z,27.33
2023-08-26T20:39:20.289Z,27.32
2023-08-26T20:41:48.438Z,27.25
2023-08-26T20:44:16.583Z,27.25
2023-08-26T20:46:44.816Z,27.30
2023-08-26T20:49:14.313Z,27.25
2023-08-26T20:51:42.791Z,27.26
2023-08-26T20:54:11.057Z,27.22
2023-08-26T20:56:39.272Z,27.17
2023-08-26T20:59:07.575Z,27.07
2023-08-26T21:01:35.930Z,27.10
2023-08-26T21:04:04.321Z,27.05
2023-08-26T21:06:33.779Z,26.98
2023-08-26T21:09:01.915Z,26.91
2023-08-26T21:11:30.327Z,26.93
2023-08-26T21:13:58.377Z,26.89
2023-08-26T21:16:27.225Z,26.78
2023-08-26T21:18:55.817Z,26.76
2023-08-26T21:21:23.929Z,26.76
2023-08-26T21:23:53.550Z,26.67
2023-08-26T21:26:22.532Z,26.64
2023-08-26T21:28:50.662Z,26.69
2023-08-26T21:31:18.881Z,26.73
2023-08-26T21:33:47.209Z,26.67
2023-08-26T21:36:15.701Z,26.60
2023-08-26T21:38:44.006Z,26.67
2023-08-26T21:41:13.599Z,26.66
2023-08-26T21:43:41.809Z,26.58
2023-08-26T21:46:09.976Z,26.56
2023-08-26T21:48:38.289Z,26.53
2023-08-26T21:51:09.795Z,26.44
2023-08-26T21:53:37.996Z,26.38
2023-08-26T21:56:06.812Z,26.30
2023-08-26T21:58:36.402Z,26.22
2023-08-26T22:01:04.535Z,26.24
2023-08-26T22:03:33.042Z,26.25
2023-08-26T22:06:02.039Z,26.22
2023-08-26T22:08:30.347Z,26.23
2023-08-26T22:10:58.455Z,26.21
2023-08-26T22:13:26.628Z,26.16
2023-08-26T22:15:59.056Z,26.15
2023-08-26T22:18:27.898Z,26.10
2023-08-26T22:20:56.196Z,26.05
2023-08-26T22:23:24.924Z,25.98
2023-08-26T22:25:53.115Z,26.03
2023-08-26T22:28:21.347Z,26.00
2023-08-26T22:30:50.201Z,25.96
2023-08-26T22:33:19.727Z,25.87
2023-08-26T22:35:48.313Z,25.94
2023-08-26T22:38:17.745Z,25.87
2023-08-26T22:40:45.994Z,25.85
2023-08-26T22:43:14.300Z,25.91
2023-08-26T22:45:43.561Z,25.86
2023-08-26T22:48:11.731Z,25.85
2023-08-26T22:50:41.769Z,25.75
2023-08-26T22:53:10.184Z,25.66
2023-08-26T22:55:38.233Z,25.65
2023-08-26T22:58:06.555Z,25.57
2023-08-26T23:00:35.103Z,25.59
2023-08-26T23:03:03.640Z,25.67
2023-08-26T23:05:32.491Z,25.66
2023-08-26T23:08:02.326Z,25.62
2023-08-26T23:10:30.443Z,25.52
2023-08-26T23:12:58.819Z,25.52
2023-08-26T23:15:27.111Z,25.42
2023-08-26T23:17:55.207Z,25.42
2023-08-26T23:20:23.320Z,25.36
2023-08-26T23:22:51.622Z,25.42
2023-08-26T23:25:21.385Z,25.32
2023-08-26T23:27:49.346Z,25.37
2023-08-26T23:30:17.637Z,25.25
2023-08-26T23:32:46.030Z,25.14
2023-08-26T23:35:14.082Z,25.25
2023-08-26T23:37:42.054Z,25.13
2023-08-26T23:40:12.171Z,25.21
2023-08-26T23:42:41.755Z,25.11
2023-08-26T23:45:10.756Z,25.13
2023-08-26T23:47:38.829Z,25.16
2023-08-26T23:50:08.245Z,25.08
2023-08-26T23:52:36.570Z,25.17
2023-08-26T23:55:06.229Z,25.10
2023-08-26T23:57:35.102Z,25.17
